Antis, Pennsylvania
Current Conditions -  °F | °C
As of 10:53 PM on Saturday 25 Oct 2014 (Local Time) from KAOO Reporting Station
Broken Clouds Broken Clouds  
Wind Chill: 17°   Ceiling: 7000
Heat Index: 17°   Visibility: 10mi
Dew Point: 10°   Wind: 20mph
Humidity: 65%   Direction: 280°W
Pressure: 29.69"   Gusts: 32mph
Location:  40.6274°N, 78.3392°W
Report Text: KAOO 260253Z AUTO 28017G28KT 10SM FEW037 BKN070 17/10 A2969 RMK AO2 PK WND 27033/0232 SLP051 T01670100 56009
Loading
Personal Weather Stations






























Interactive Weather Map
Tropical Storm Tracking
New forecast layout! Learn more

10-Day Weather Forecast

Advertisements
Track Severe Weather on mobile